Time;durP1;ratioP1;P1;durP2;ratioP2;P2;SDS_P1;SDS_P2;PMS_P1;PMS_P2;Temp;Humidity;BMP_temperature;BMP_pressure;BME280_temperature;BME280_humidity;BME280_pressure;Samples;Min_cycle;Max_cycle;Signal;HPM_P1;HPM_P2
2021/08/30 00:01:14;;;;;;;4.80;3.40;;;14.20;99.90;;;;;;5051154;28;20044;-73
2021/08/30 00:03:39;;;;;;;3.72;3.28;;;14.20;99.90;;;;;;5051339;28;20372;-73
2021/08/30 00:06:06;;;;;;;7.55;4.18;;;14.10;99.90;;;;;;5050965;28;20479;-74
2021/08/30 00:08:31;;;;;;;4.50;3.83;;;14.20;99.90;;;;;;5051313;28;20041;-74
2021/08/30 00:10:57;;;;;;;4.65;4.25;;;14.20;99.90;;;;;;5051076;28;20027;-73
2021/08/30 00:13:23;;;;;;;5.13;3.70;;;14.20;99.90;;;;;;5050912;28;20659;-73
2021/08/30 00:15:49;;;;;;;5.07;4.10;;;14.20;99.90;;;;;;5050376;28;20459;-74
2021/08/30 00:18:14;;;;;;;6.28;3.90;;;14.20;99.90;;;;;;5050876;28;20025;-73
2021/08/30 00:20:40;;;;;;;4.78;3.70;;;14.30;99.90;;;;;;5050932;28;20112;-73
2021/08/30 00:23:06;;;;;;;3.90;3.50;;;14.20;99.90;;;;;;5051624;28;20086;-73
2021/08/30 00:25:32;;;;;;;3.58;3.28;;;14.20;99.90;;;;;;5053597;28;20047;-73
2021/08/30 00:27:57;;;;;;;3.55;3.35;;;14.20;99.90;;;;;;5036442;28;20028;-74
2021/08/30 00:30:23;;;;;;;4.75;3.00;;;14.20;99.90;;;;;;5036304;28;20051;-73
2021/08/30 00:32:49;;;;;;;3.67;2.72;;;14.20;99.90;;;;;;5054363;28;20029;-73
2021/08/30 00:35:14;;;;;;;4.53;3.08;;;14.20;99.90;;;;;;5053979;28;20029;-73
2021/08/30 00:37:40;;;;;;;3.22;2.80;;;14.20;99.90;;;;;;5055807;28;20103;-74
2021/08/30 00:40:07;;;;;;;2.97;2.72;;;14.20;99.90;;;;;;5055177;28;20017;-71
2021/08/30 00:42:33;;;;;;;3.13;2.92;;;14.10;99.90;;;;;;5055167;28;20029;-73
2021/08/30 00:45:00;;;;;;;3.63;3.33;;;14.20;99.90;;;;;;5053979;28;20482;-72
2021/08/30 00:47:26;;;;;;;6.78;3.65;;;14.10;99.90;;;;;;5054783;28;20048;-74
2021/08/30 00:49:54;;;;;;;3.58;3.05;;;14.10;99.90;;;;;;5054354;28;20487;-73
2021/08/30 00:52:20;;;;;;;5.80;3.38;;;14.10;99.90;;;;;;5054398;28;20025;-72
2021/08/30 00:54:47;;;;;;;6.40;3.40;;;14.00;99.90;;;;;;5053070;28;20100;-73
2021/08/30 00:57:13;;;;;;;9.48;3.97;;;14.10;99.90;;;;;;5053945;28;20036;-73
2021/08/30 00:59:42;;;;;;;3.72;3.42;;;14.10;99.90;;;;;;5053737;28;20053;-72
2021/08/30 01:02:09;;;;;;;4.22;3.15;;;14.10;99.90;;;;;;5053707;28;20067;-73
2021/08/30 01:04:35;;;;;;;3.83;3.15;;;14.10;99.90;;;;;;5053148;28;20494;-74
2021/08/30 01:07:18;;;;;;;5.57;3.13;;;14.10;99.90;;;;;;5053688;28;20025;-73
2021/08/30 01:10:06;;;;;;;3.28;3.08;;;14.10;99.90;;;;;;5053415;28;20483;-74
2021/08/30 01:12:43;;;;;;;3.08;2.80;;;14.10;99.90;;;;;;5053676;28;20029;-72
2021/08/30 01:15:16;;;;;;;2.83;2.55;;;14.10;99.90;;;;;;5053690;28;20049;-71
2021/08/30 01:17:44;;;;;;;2.65;2.45;;;14.10;99.90;;;;;;5053595;28;20039;-72
2021/08/30 01:21:07;;;;;;;5.60;2.05;;;14.00;99.90;;;;;;5053948;28;20025;-72
2021/08/30 01:23:37;;;;;;;4.50;1.30;;;14.00;99.90;;;;;;4985336;28;20035;-73
2021/08/30 01:26:05;;;;;;;1.65;1.30;;;14.00;99.90;;;;;;5040395;28;20029;-72
2021/08/30 01:28:36;;;;;;;3.33;1.73;;;14.00;99.90;;;;;;5053461;28;20028;-73
2021/08/30 01:31:11;;;;;;;4.17;1.50;;;14.00;99.90;;;;;;5053298;28;20049;-74
2021/08/30 01:33:37;;;;;;;1.00;1.00;;;14.10;99.90;;;;;;5055796;28;20515;-74
2021/08/30 01:36:04;;;;;;;1.40;1.30;;;14.10;99.90;;;;;;5051884;28;20029;-73
2021/08/30 01:38:30;;;;;;;1.70;1.33;;;14.10;99.90;;;;;;5053380;28;20426;-72
2021/08/30 01:40:57;;;;;;;4.88;1.10;;;14.10;99.90;;;;;;5053675;28;20028;-73
2021/08/30 01:43:23;;;;;;;1.25;1.02;;;14.10;99.90;;;;;;5052958;28;20025;-73
2021/08/30 01:45:49;;;;;;;2.97;1.05;;;14.10;99.90;;;;;;5052077;28;20029;-74
2021/08/30 01:48:17;;;;;;;2.55;1.13;;;14.10;99.90;;;;;;5052614;28;20113;-71
2021/08/30 01:50:43;;;;;;;2.03;1.20;;;14.00;99.90;;;;;;5052852;28;20021;-72
2021/08/30 01:53:10;;;;;;;2.03;1.92;;;14.10;99.90;;;;;;5034788;28;20055;-73
2021/08/30 01:55:44;;;;;;;4.05;2.10;;;14.00;99.90;;;;;;5052009;28;20025;-73
2021/08/30 02:03:23;;;;;;;3.50;2.10;;;13.90;99.90;;;;;;5052491;28;20048;-73
2021/08/30 02:06:04;;;;;;;3.15;2.30;;;13.90;99.90;;;;;;5051966;28;20025;-73
2021/08/30 02:08:32;;;;;;;2.72;2.47;;;14.00;99.90;;;;;;5052392;28;20072;-72
2021/08/30 02:11:00;;;;;;;2.17;2.03;;;14.00;99.90;;;;;;5052480;28;20140;-72
2021/08/30 02:13:28;;;;;;;2.17;1.88;;;14.10;99.90;;;;;;5052308;28;20104;-73
2021/08/30 02:15:55;;;;;;;1.90;1.80;;;14.00;99.90;;;;;;5051459;28;20530;-73
2021/08/30 02:18:43;;;;;;;3.35;1.70;;;14.00;99.90;;;;;;5052018;28;20032;-73
2021/08/30 02:21:36;;;;;;;3.63;1.80;;;14.00;99.90;;;;;;5052510;28;20080;-72
2021/08/30 02:24:20;;;;;;;2.00;1.80;;;14.00;99.90;;;;;;5051902;28;20433;-73
2021/08/30 02:26:57;;;;;;;2.03;1.92;;;14.10;99.90;;;;;;5052207;28;20028;-73
2021/08/30 02:29:27;;;;;;;2.00;1.90;;;14.10;99.90;;;;;;5052183;28;20029;-74
2021/08/30 02:31:58;;;;;;;1.90;1.80;;;14.10;99.90;;;;;;5052042;28;20049;-73
2021/08/30 02:34:27;;;;;;;2.20;2.05;;;14.10;99.90;;;;;;5051771;28;20062;-73
2021/08/30 02:36:54;;;;;;;3.72;2.22;;;14.10;99.90;;;;;;5052186;28;20045;-71
2021/08/30 02:39:20;;;;;;;4.18;2.00;;;14.10;99.90;;;;;;5051660;28;20422;-72
2021/08/30 02:41:48;;;;;;;2.33;2.22;;;14.10;99.90;;;;;;5052164;28;20074;-72
2021/08/30 02:44:15;;;;;;;2.45;2.20;;;14.10;99.90;;;;;;5052316;28;20463;-73
2021/08/30 02:49:09;;;;;;;3.88;2.20;;;14.10;99.90;;;;;;5049197;28;20044;-75
2021/08/30 02:51:37;;;;;;;4.43;1.95;;;14.10;99.90;;;;;;5033712;28;20021;-74
2021/08/30 02:54:04;;;;;;;2.00;1.90;;;14.10;99.90;;;;;;5051638;28;20108;-74
2021/08/30 02:56:31;;;;;;;2.88;2.40;;;14.00;99.90;;;;;;5050977;28;20119;-75
2021/08/30 02:58:58;;;;;;;2.58;2.22;;;14.10;99.90;;;;;;5031627;28;20033;-75
2021/08/30 03:01:24;;;;;;;2.33;2.10;;;14.00;99.90;;;;;;5030667;28;20809;-74
2021/08/30 03:03:50;;;;;;;1.98;1.80;;;14.00;99.90;;;;;;5031335;28;20037;-74
2021/08/30 03:06:17;;;;;;;2.30;2.10;;;13.90;99.90;;;;;;5035723;28;20479;-72
2021/08/30 03:08:43;;;;;;;4.72;2.20;;;13.90;99.90;;;;;;5041746;28;20057;-76
2021/08/30 03:11:12;;;;;;;3.05;2.10;;;13.90;99.90;;;;;;5040193;28;20040;-74
2021/08/30 03:13:42;;;;;;;2.95;2.55;;;14.00;99.90;;;;;;5037833;28;20109;-73
2021/08/30 03:16:09;;;;;;;2.28;2.08;;;14.00;99.90;;;;;;5036394;28;20021;-74
2021/08/30 03:18:38;;;;;;;4.05;2.38;;;14.00;99.90;;;;;;5035925;28;20422;-74
2021/08/30 03:21:03;;;;;;;5.07;2.67;;;14.00;99.90;;;;;;5036057;28;20037;-74
2021/08/30 03:23:31;;;;;;;4.70;2.63;;;13.90;99.90;;;;;;5033620;28;20033;-75
2021/08/30 03:25:58;;;;;;;3.83;2.30;;;13.80;99.90;;;;;;5031098;28;20475;-75
2021/08/30 03:28:25;;;;;;;2.88;2.33;;;13.70;99.90;;;;;;5031420;28;20108;-74
2021/08/30 03:30:52;;;;;;;3.45;2.50;;;13.80;99.90;;;;;;5031249;28;20041;-73
2021/08/30 03:33:19;;;;;;;5.43;2.60;;;13.70;99.90;;;;;;5046301;28;20029;-75
2021/08/30 03:35:47;;;;;;;4.00;2.60;;;13.60;99.90;;;;;;5030681;28;20057;-74
2021/08/30 03:38:13;;;;;;;2.88;2.70;;;13.70;99.90;;;;;;5013496;28;20025;-73
2021/08/30 03:40:42;;;;;;;7.20;2.65;;;13.60;99.90;;;;;;5046634;28;20061;-75
2021/08/30 03:43:09;;;;;;;5.10;3.00;;;13.60;99.90;;;;;;5031123;28;20570;-74
2021/08/30 03:45:37;;;;;;;2.92;2.72;;;13.60;99.90;;;;;;5030233;28;20029;-73
2021/08/30 03:48:03;;;;;;;4.35;2.90;;;13.70;99.90;;;;;;5030801;28;20063;-75
2021/08/30 03:50:30;;;;;;;3.22;2.90;;;13.80;99.90;;;;;;5030903;28;20033;-74
2021/08/30 03:52:57;;;;;;;3.28;2.97;;;13.70;99.90;;;;;;5030863;28;20479;-74
2021/08/30 03:55:22;;;;;;;3.47;2.50;;;13.70;99.90;;;;;;5030508;28;20053;-75
2021/08/30 03:57:52;;;;;;;4.80;2.55;;;13.70;99.90;;;;;;5031260;28;20095;-74
2021/08/30 04:00:19;;;;;;;3.83;3.28;;;13.70;99.90;;;;;;5034800;28;20033;-74
2021/08/30 04:02:45;;;;;;;4.32;2.67;;;13.60;99.90;;;;;;5034326;28;20035;-74
2021/08/30 04:05:17;;;;;;;5.63;2.63;;;13.70;99.90;;;;;;5033885;28;20079;-74
2021/08/30 04:07:43;;;;;;;;;;;13.70;99.90;;;;;;5035076;28;20049;-74
2021/08/30 04:10:09;;;;;;;2.85;2.58;;;13.70;99.90;;;;;;5034573;28;19959;-74
2021/08/30 04:12:35;;;;;;;3.58;2.90;;;13.80;99.90;;;;;;5034305;28;20044;-75
2021/08/30 04:15:01;;;;;;;3.08;2.83;;;13.70;99.90;;;;;;5033818;28;20025;-74
2021/08/30 04:17:27;;;;;;;2.97;2.67;;;13.80;99.90;;;;;;5034357;28;20033;-76
2021/08/30 04:19:53;;;;;;;2.97;2.78;;;13.80;99.90;;;;;;5034466;28;20470;-76
2021/08/30 04:22:19;;;;;;;3.05;2.78;;;13.70;99.90;;;;;;5034426;28;20450;-74
2021/08/30 04:24:44;;;;;;;4.90;3.17;;;13.80;99.90;;;;;;5028890;28;20029;-74
2021/08/30 04:27:11;;;;;;;6.18;3.47;;;13.80;99.90;;;;;;5029914;28;20029;-75
2021/08/30 04:29:37;;;;;;;3.10;2.90;;;13.90;99.90;;;;;;5033981;28;20018;-76
2021/08/30 04:32:04;;;;;;;5.80;2.95;;;13.90;99.90;;;;;;5034706;28;20125;-81
2021/08/30 04:34:30;;;;;;;4.65;3.20;;;14.00;99.90;;;;;;5035488;28;20027;-81
2021/08/30 04:36:55;;;;;;;4.70;3.55;;;14.00;99.90;;;;;;5026008;28;20077;-79
2021/08/30 04:39:21;;;;;;;4.90;2.70;;;14.00;99.90;;;;;;5022010;28;20025;-75
2021/08/30 04:41:47;;;;;;;2.88;2.67;;;13.90;99.90;;;;;;5028066;28;20022;-78
2021/08/30 04:44:13;;;;;;;5.70;2.83;;;13.90;99.90;;;;;;5038980;28;20235;-78
2021/08/30 04:46:39;;;;;;;3.58;3.17;;;13.90;99.90;;;;;;5028324;28;20084;-80
2021/08/30 04:49:05;;;;;;;5.13;3.20;;;13.90;99.90;;;;;;5027212;28;20029;-78
2021/08/30 04:51:30;;;;;;;4.75;2.67;;;13.90;99.90;;;;;;5024946;28;20120;-78
2021/08/30 04:53:56;;;;;;;3.53;3.05;;;13.90;99.90;;;;;;5027246;28;20018;-79
2021/08/30 04:56:22;;;;;;;3.10;2.90;;;13.80;99.90;;;;;;5046147;28;20022;-81
2021/08/30 04:58:47;;;;;;;3.25;2.95;;;13.80;99.90;;;;;;5023128;28;20029;-80
2021/08/30 05:01:13;;;;;;;3.15;2.95;;;13.90;99.90;;;;;;5034216;28;20061;-82
2021/08/30 05:03:39;;;;;;;4.18;3.42;;;13.90;99.90;;;;;;5018458;28;20025;-82
2021/08/30 05:06:04;;;;;;;4.25;3.55;;;14.00;99.90;;;;;;5032577;28;20030;-82
2021/08/30 05:08:30;;;;;;;3.45;3.25;;;14.00;99.90;;;;;;5023182;28;20024;-81
2021/08/30 05:10:56;;;;;;;3.15;2.85;;;14.00;99.90;;;;;;5034506;28;20022;-80
2021/08/30 05:13:22;;;;;;;3.33;3.03;;;13.90;99.90;;;;;;5045722;28;20042;-79
2021/08/30 05:15:48;;;;;;;3.40;3.10;;;13.80;99.90;;;;;;5030494;28;20017;-70
2021/08/30 05:18:14;;;;;;;4.20;3.17;;;13.80;99.90;;;;;;5030204;28;20065;-77
2021/08/30 05:20:40;;;;;;;3.20;2.92;;;13.80;99.90;;;;;;5033309;28;20041;-77
2021/08/30 05:23:06;;;;;;;4.22;2.70;;;13.90;99.90;;;;;;5033777;28;20104;-75
2021/08/30 05:25:32;;;;;;;3.88;2.90;;;14.00;99.90;;;;;;5032481;28;20513;-76
2021/08/30 05:27:58;;;;;;;3.95;3.00;;;14.20;99.90;;;;;;5033053;28;20026;-75
2021/08/30 05:30:23;;;;;;;3.20;2.90;;;14.20;99.90;;;;;;5033087;28;20108;-75
2021/08/30 05:32:50;;;;;;;3.85;2.85;;;14.20;99.90;;;;;;5032966;28;20025;-77
2021/08/30 05:35:15;;;;;;;2.72;2.53;;;14.10;99.90;;;;;;5032445;28;20021;-74
2021/08/30 05:37:41;;;;;;;4.20;3.05;;;14.20;99.90;;;;;;5030762;28;20375;-72
2021/08/30 05:40:07;;;;;;;3.50;2.92;;;14.10;99.90;;;;;;5032577;28;20057;-73
2021/08/30 05:42:33;;;;;;;3.38;2.60;;;14.00;99.90;;;;;;5032680;28;20045;-74
2021/08/30 05:44:58;;;;;;;3.20;3.00;;;14.00;99.90;;;;;;5032123;28;20061;-74
2021/08/30 05:47:24;;;;;;;3.25;3.00;;;14.00;99.90;;;;;;5031837;28;20037;-72
2021/08/30 05:49:50;;;;;;;3.20;3.00;;;13.90;99.90;;;;;;5032515;28;20105;-74
2021/08/30 05:52:15;;;;;;;4.05;2.85;;;13.90;99.90;;;;;;5032649;28;20112;-76
2021/08/30 05:54:41;;;;;;;5.45;3.10;;;14.00;99.90;;;;;;5031489;28;20030;-74
2021/08/30 05:57:07;;;;;;;5.22;3.20;;;13.90;99.90;;;;;;5032130;28;20025;-73
2021/08/30 05:59:36;;;;;;;4.10;3.67;;;13.90;99.90;;;;;;5032095;28;20025;-73
2021/08/30 06:02:01;;;;;;;3.08;2.88;;;13.90;99.90;;;;;;5032437;28;20105;-75
2021/08/30 06:04:27;;;;;;;5.13;3.60;;;13.90;99.90;;;;;;5031220;28;20159;-76
2021/08/30 06:06:53;;;;;;;3.78;3.30;;;14.00;99.90;;;;;;5031925;28;20068;-75
2021/08/30 06:09:18;;;;;;;4.57;3.63;;;14.00;99.90;;;;;;5032147;28;20503;-75
2021/08/30 06:11:44;;;;;;;5.03;4.53;;;14.10;99.90;;;;;;5043129;28;20034;-75
2021/08/30 06:14:09;;;;;;;4.88;3.80;;;14.00;99.90;;;;;;5029939;28;20057;-75
2021/08/30 06:16:35;;;;;;;5.88;4.50;;;14.00;99.90;;;;;;5031267;28;20026;-74
2021/08/30 06:19:01;;;;;;;5.22;4.72;;;14.00;99.90;;;;;;5031544;28;20017;-76
2021/08/30 06:21:26;;;;;;;6.18;4.70;;;14.10;99.90;;;;;;5031707;28;20472;-74
2021/08/30 06:23:52;;;;;;;6.00;5.50;;;14.10;99.90;;;;;;5031831;28;20439;-74
2021/08/30 06:26:18;;;;;;;7.07;6.18;;;14.10;99.90;;;;;;5023837;28;20096;-74
2021/08/30 06:28:43;;;;;;;9.05;6.55;;;14.30;99.90;;;;;;5030556;28;20029;-74
2021/08/30 06:31:09;;;;;;;9.73;8.82;;;14.40;99.90;;;;;;5031522;28;20507;-74
2021/08/30 06:33:35;;;;;;;10.55;8.98;;;14.50;99.90;;;;;;5031707;28;20032;-73
2021/08/30 06:36:01;;;;;;;12.02;10.23;;;14.60;99.90;;;;;;5031056;28;20013;-73
2021/08/30 06:38:27;;;;;;;14.85;10.55;;;14.70;99.90;;;;;;5031635;28;20525;-74
2021/08/30 06:40:52;;;;;;;15.98;9.95;;;14.90;99.90;;;;;;5031691;28;20091;-74
2021/08/30 06:43:18;;;;;;;9.57;8.23;;;14.90;99.90;;;;;;5013794;28;20026;-73
2021/08/30 06:45:44;;;;;;;9.48;8.57;;;14.90;99.90;;;;;;5030976;28;20025;-73
2021/08/30 06:48:09;;;;;;;10.38;8.82;;;15.00;99.90;;;;;;5030915;28;20076;-75
2021/08/30 06:50:35;;;;;;;9.70;7.43;;;15.00;99.90;;;;;;5031536;28;20036;-74
2021/08/30 06:53:01;;;;;;;7.70;6.97;;;15.00;99.90;;;;;;5031293;28;20030;-75
2021/08/30 06:55:26;;;;;;;8.85;7.25;;;15.00;99.90;;;;;;5030530;28;20116;-74
2021/08/30 06:57:52;;;;;;;7.32;6.63;;;15.00;99.90;;;;;;5013561;28;20479;-74
2021/08/30 07:00:18;;;;;;;6.72;5.95;;;15.10;99.90;;;;;;5030904;28;20551;-75
2021/08/30 07:02:44;;;;;;;6.88;6.25;;;15.10;99.90;;;;;;5031321;28;20048;-76
2021/08/30 07:05:10;;;;;;;5.90;5.30;;;15.20;99.90;;;;;;5030763;28;20025;-75
2021/08/30 07:07:36;;;;;;;7.50;6.57;;;15.10;99.90;;;;;;5031140;28;20029;-73
2021/08/30 07:10:03;;;;;;;5.85;5.32;;;15.20;99.90;;;;;;5031275;28;20112;-74
2021/08/30 07:12:28;;;;;;;5.93;5.43;;;15.30;99.90;;;;;;5031168;28;20660;-75
2021/08/30 07:14:54;;;;;;;10.43;6.57;;;15.40;99.90;;;;;;5031012;28;20025;-74
2021/08/30 07:17:20;;;;;;;5.60;5.10;;;15.50;99.90;;;;;;5031332;28;20434;-74
2021/08/30 07:19:46;;;;;;;6.28;5.68;;;15.60;99.90;;;;;;5031114;28;20471;-77
2021/08/30 07:22:13;;;;;;;5.70;5.18;;;15.60;99.90;;;;;;5030994;28;20068;-73
2021/08/30 07:24:38;;;;;;;6.55;5.95;;;15.50;99.90;;;;;;5030216;28;20022;-75
2021/08/30 07:27:04;;;;;;;9.27;5.50;;;15.70;99.90;;;;;;5031236;28;20030;-76
2021/08/30 07:29:31;;;;;;;6.80;6.10;;;15.80;99.90;;;;;;5030661;28;20022;-75
2021/08/30 07:31:56;;;;;;;7.05;6.20;;;15.90;99.90;;;;;;5030888;28;20086;-75
2021/08/30 07:34:24;;;;;;;7.40;6.20;;;15.80;99.90;;;;;;5033388;28;20113;-74
2021/08/30 07:36:50;;;;;;;7.20;5.68;;;15.90;99.90;;;;;;5034652;28;20120;-74
2021/08/30 07:39:16;;;;;;;7.20;6.50;;;16.00;99.90;;;;;;5035008;28;20025;-74
2021/08/30 07:41:41;;;;;;;6.45;5.85;;;16.00;99.90;;;;;;5035134;28;20047;-74
2021/08/30 07:44:07;;;;;;;6.90;6.30;;;16.20;99.90;;;;;;5034848;28;20167;-75
2021/08/30 07:46:32;;;;;;;6.00;5.50;;;16.20;99.90;;;;;;5034225;28;20495;-76
2021/08/30 07:48:58;;;;;;;6.28;5.70;;;16.30;99.90;;;;;;5034220;28;20033;-73
2021/08/30 07:51:24;;;;;;;6.68;6.07;;;16.50;99.90;;;;;;5034407;28;20112;-74
2021/08/30 07:53:50;;;;;;;7.28;6.40;;;16.20;99.90;;;;;;5034734;28;20041;-72
2021/08/30 07:56:15;;;;;;;6.68;6.07;;;16.20;99.90;;;;;;5034177;28;20028;-74
2021/08/30 07:58:41;;;;;;;6.82;6.13;;;16.30;99.90;;;;;;5034689;28;20048;-75
2021/08/30 08:01:07;;;;;;;8.55;6.93;;;16.30;99.90;;;;;;5033110;28;20022;-75
2021/08/30 08:03:32;;;;;;;8.85;7.97;;;16.20;99.90;;;;;;5034299;28;20030;-75
2021/08/30 08:05:58;;;;;;;9.48;8.52;;;16.40;99.90;;;;;;5033735;28;20033;-74
2021/08/30 08:08:24;;;;;;;11.75;7.57;;;16.60;99.90;;;;;;5032394;28;20038;-76
2021/08/30 08:10:49;;;;;;;10.63;7.32;;;16.50;99.90;;;;;;5032682;28;20056;-73
2021/08/30 08:13:15;;;;;;;7.72;6.93;;;16.40;99.90;;;;;;5034217;28;20061;-73
2021/08/30 08:15:42;;;;;;;7.55;6.85;;;16.30;99.90;;;;;;5033669;28;20022;-74
2021/08/30 08:18:08;;;;;;;8.10;7.28;;;16.40;99.90;;;;;;5033927;28;20570;-74
2021/08/30 08:20:34;;;;;;;9.02;7.75;;;16.50;99.90;;;;;;5033902;28;20037;-73
2021/08/30 08:23:01;;;;;;;9.07;6.70;;;16.60;99.90;;;;;;5034136;28;20029;-74
2021/08/30 08:25:27;;;;;;;7.72;7.00;;;16.60;99.90;;;;;;5033451;28;20053;-74
2021/08/30 08:27:54;;;;;;;11.23;7.55;;;16.50;99.90;;;;;;5033982;28;20381;-74
2021/08/30 08:30:20;;;;;;;7.65;6.95;;;16.50;99.90;;;;;;5033842;28;20068;-74
2021/08/30 08:32:46;;;;;;;7.97;7.18;;;16.50;99.90;;;;;;5033771;28;20459;-75
2021/08/30 08:35:13;;;;;;;7.50;6.80;;;16.30;99.90;;;;;;5033234;28;20521;-74
2021/08/30 08:37:39;;;;;;;7.65;6.95;;;16.30;99.90;;;;;;5033829;28;20535;-74
2021/08/30 08:40:06;;;;;;;7.88;7.13;;;16.30;99.90;;;;;;5049259;28;20082;-74
2021/08/30 08:42:35;;;;;;;7.03;6.28;;;16.20;99.90;;;;;;5033504;28;20029;-74
2021/08/30 08:45:03;;;;;;;6.78;6.15;;;16.30;99.90;;;;;;5032754;28;20072;-73
2021/08/30 08:47:30;;;;;;;6.95;6.25;;;16.50;99.90;;;;;;5033408;28;20403;-74
2021/08/30 08:49:55;;;;;;;6.35;5.75;;;16.70;99.90;;;;;;5083667;22;20049;-78
2021/08/30 08:52:22;;;;;;;6.22;5.18;;;16.70;99.90;;;;;;5052914;28;20033;-79
2021/08/30 08:54:48;;;;;;;5.60;5.10;;;16.70;99.90;;;;;;5060200;28;20494;-77
2021/08/30 08:57:14;;;;;;;5.72;5.15;;;16.70;99.90;;;;;;5060459;28;20021;-79
2021/08/30 08:59:40;;;;;;;5.50;4.90;;;16.50;99.90;;;;;;5054382;28;20499;-79
2021/08/30 09:02:07;;;;;;;5.90;5.40;;;16.50;99.90;;;;;;5039808;28;20104;-79
2021/08/30 09:04:35;;;;;;;6.65;5.53;;;16.40;99.90;;;;;;5039689;28;20096;-79
2021/08/30 09:07:09;;;;;;;5.63;4.85;;;16.40;99.90;;;;;;5036984;28;20021;-79
2021/08/30 09:09:37;;;;;;;6.05;5.55;;;16.30;99.90;;;;;;5030396;28;20018;-78
2021/08/30 09:12:03;;;;;;;7.63;5.45;;;16.70;99.90;;;;;;5034965;28;20077;-80
2021/08/30 09:14:30;;;;;;;12.60;5.10;;;16.90;99.90;;;;;;5017676;28;20407;-80
2021/08/30 09:17:06;;;;;;;6.07;5.47;;;16.90;99.90;;;;;;5029856;28;20014;-79
2021/08/30 09:19:33;;;;;;;8.85;5.85;;;16.80;99.90;;;;;;5034138;28;20018;-79
2021/08/30 09:22:02;;;;;;;5.18;4.68;;;16.90;99.90;;;;;;5033266;28;20032;-80
2021/08/30 09:24:28;;;;;;;5.38;4.88;;;17.10;99.90;;;;;;5028358;28;20033;-79
2021/08/30 09:26:56;;;;;;;5.07;4.68;;;16.90;99.90;;;;;;5029418;28;20052;-80
2021/08/30 09:29:27;;;;;;;5.85;5.35;;;17.00;99.90;;;;;;5005769;28;20056;-79
2021/08/30 09:32:08;;;;;;;5.20;4.77;;;17.00;99.90;;;;;;5023749;28;20022;-80
2021/08/30 09:34:38;;;;;;;4.88;4.38;;;16.80;99.90;;;;;;5004512;28;20022;-80
2021/08/30 09:37:11;;;;;;;4.93;4.53;;;16.50;99.90;;;;;;5023607;28;20063;-80
2021/08/30 09:39:50;;;;;;;5.03;4.63;;;16.40;99.90;;;;;;5003769;28;20018;-80
2021/08/30 09:42:17;;;;;;;7.35;4.43;;;16.40;99.90;;;;;;5022870;28;20072;-79
2021/08/30 09:44:43;;;;;;;4.90;4.50;;;16.50;99.90;;;;;;5023062;28;20097;-79
2021/08/30 09:47:10;;;;;;;4.75;4.28;;;16.80;99.90;;;;;;5023357;28;20095;-79
2021/08/30 09:49:36;;;;;;;4.97;4.40;;;17.00;99.90;;;;;;5023439;28;20037;-79
2021/08/30 09:52:02;;;;;;;4.35;4.05;;;17.10;99.90;;;;;;5022692;28;20022;-80
2021/08/30 09:54:28;;;;;;;5.07;4.55;;;17.30;99.90;;;;;;5025545;28;20010;-81
2021/08/30 09:56:54;;;;;;;6.75;4.50;;;17.30;99.90;;;;;;5032265;28;20024;-79
2021/08/30 09:59:21;;;;;;;6.18;4.35;;;17.40;99.90;;;;;;5027967;28;20018;-79
2021/08/30 10:01:49;;;;;;;4.38;3.97;;;17.50;99.90;;;;;;5026900;28;20030;-79
2021/08/30 10:04:19;;;;;;;5.13;4.22;;;17.50;99.90;;;;;;5029827;28;20048;-79
2021/08/30 10:06:49;;;;;;;5.18;3.90;;;17.70;99.90;;;;;;5028208;28;20021;-80
2021/08/30 10:09:17;;;;;;;4.57;4.18;;;17.70;99.90;;;;;;5023083;28;20022;-79
2021/08/30 10:11:45;;;;;;;5.50;5.00;;;17.60;99.90;;;;;;5019967;28;20037;-79
2021/08/30 10:14:17;;;;;;;6.28;5.15;;;17.40;99.90;;;;;;5016347;28;20029;-79
2021/08/30 10:16:43;;;;;;;6.18;5.13;;;17.30;99.90;;;;;;5013827;28;20060;-78
2021/08/30 10:19:09;;;;;;;7.40;6.68;;;17.20;99.90;;;;;;5014902;28;20172;-79
2021/08/30 10:21:46;;;;;;;10.48;6.80;;;17.30;99.90;;;;;;5033113;28;20030;-79
2021/08/30 10:24:16;;;;;;;6.13;5.63;;;17.70;99.90;;;;;;5032904;28;20091;-78
2021/08/30 10:26:44;;;;;;;6.93;6.22;;;17.90;99.90;;;;;;5033729;28;20044;-78
2021/08/30 10:29:11;;;;;;;7.72;5.93;;;18.20;99.90;;;;;;5032674;28;20032;-78
2021/08/30 10:31:46;;;;;;;7.50;6.70;;;17.90;99.90;;;;;;5032496;28;20048;-78
2021/08/30 10:34:28;;;;;;;6.72;6.07;;;18.00;99.90;;;;;;5033301;28;20026;-80
2021/08/30 10:36:55;;;;;;;6.68;6.10;;;18.00;99.90;;;;;;5033241;28;20033;-79
2021/08/30 10:39:22;;;;;;;7.97;7.18;;;18.10;99.90;;;;;;5033220;28;20030;-79
2021/08/30 10:41:50;;;;;;;7.80;6.90;;;17.90;99.90;;;;;;5033070;28;20156;-79
2021/08/30 10:44:23;;;;;;;9.52;7.50;;;17.60;99.90;;;;;;5032750;28;20025;-78
2021/08/30 10:46:54;;;;;;;9.43;7.18;;;17.10;99.90;;;;;;5033455;28;20028;-78
2021/08/30 10:49:20;;;;;;;10.23;8.15;;;16.80;99.90;;;;;;5032423;28;20033;-80
2021/08/30 10:51:48;;;;;;;8.77;7.65;;;16.80;99.90;;;;;;5032977;28;20071;-78
2021/08/30 10:54:23;;;;;;;8.77;7.88;;;16.80;99.90;;;;;;5032783;28;20387;-79
2021/08/30 10:56:58;;;;;;;12.93;10.95;;;16.80;99.90;;;;;;5034128;28;20765;-86
2021/08/30 10:59:26;;;;;;;11.93;10.65;;;16.80;99.90;;;;;;5034274;28;20021;-84
2021/08/30 11:01:58;;;;;;;14.80;12.10;;;17.00;99.90;;;;;;5033944;28;20029;-84
2021/08/30 11:04:33;;;;;;;11.30;10.07;;;17.10;99.90;;;;;;5029732;28;20084;-84
2021/08/30 11:07:00;;;;;;;9.95;8.88;;;17.40;99.90;;;;;;5018759;28;20034;-84
2021/08/30 11:09:26;;;;;;;10.48;8.65;;;17.50;99.90;;;;;;5033435;28;20029;-84
2021/08/30 11:11:52;;;;;;;11.43;9.10;;;17.80;99.90;;;;;;5033820;28;20510;-85
2021/08/30 11:14:19;;;;;;;13.48;8.73;;;17.90;99.90;;;;;;5014199;28;20037;-84
2021/08/30 11:16:55;;;;;;;10.13;7.72;;;18.10;99.90;;;;;;5027422;28;20483;-85
2021/08/30 11:19:21;;;;;;;13.73;7.82;;;18.50;99.90;;;;;;5031630;28;20026;-84
2021/08/30 11:21:58;;;;;;;9.68;8.68;;;18.90;99.90;;;;;;5020547;28;20085;-84
2021/08/30 11:24:25;;;;;;;9.60;8.45;;;19.10;99.90;;;;;;5032886;28;20107;-85
2021/08/30 11:26:52;;;;;;;9.73;7.80;;;19.00;99.90;;;;;;5021631;28;20033;-84
2021/08/30 11:29:17;;;;;;;10.07;7.88;;;19.00;99.90;;;;;;5019484;28;20034;-86
2021/08/30 11:31:43;;;;;;;10.43;8.10;;;19.00;99.90;;;;;;5018765;28;20045;-86
2021/08/30 11:34:20;;;;;;;8.18;7.40;;;19.00;99.90;;;;;;5017019;28;20056;-84
2021/08/30 11:36:47;;;;;;;8.52;7.60;;;19.00;99.90;;;;;;5005110;28;20030;-86
2021/08/30 11:39:16;;;;;;;10.32;7.65;;;18.90;99.90;;;;;;5026023;28;20022;-86
2021/08/30 11:41:44;;;;;;;9.20;7.13;;;18.90;99.90;;;;;;5021326;28;20106;-80
2021/08/30 11:44:10;;;;;;;9.30;8.15;;;18.70;99.90;;;;;;5014429;28;20034;-80
2021/08/30 11:46:48;;;;;;;8.68;7.80;;;18.70;99.90;;;;;;5014413;28;20484;-80
2021/08/30 11:49:13;;;;;;;11.80;8.27;;;18.60;99.90;;;;;;5016912;28;20034;-79
2021/08/30 11:51:45;;;;;;;11.35;8.15;;;18.70;99.90;;;;;;5032786;28;20029;-80
2021/08/30 11:54:30;;;;;;;10.25;7.90;;;18.90;99.90;;;;;;5033085;28;20018;-79
2021/08/30 11:57:04;;;;;;;9.05;7.53;;;19.70;99.90;;;;;;5034283;28;20037;-80
2021/08/30 11:59:38;;;;;;;7.25;6.60;;;20.40;99.90;;;;;;5037149;28;20081;-79
2021/08/30 12:02:06;;;;;;;8.10;6.38;;;20.10;99.90;;;;;;5033468;28;20467;-80
2021/08/30 12:04:37;;;;;;;6.78;6.07;;;19.80;99.90;;;;;;5032279;28;20027;-80
2021/08/30 12:07:07;;;;;;;7.72;6.97;;;19.60;99.90;;;;;;5015720;28;20395;-80
2021/08/30 12:09:40;;;;;;;8.73;6.13;;;19.60;99.90;;;;;;5032836;28;20037;-78
2021/08/30 12:15:27;;;;;;;9.75;6.85;;;18.90;99.90;;;;;;5025433;28;20064;-81
2021/08/30 12:17:55;;;;;;;8.05;6.22;;;18.50;99.90;;;;;;5033542;28;20108;-80
2021/08/30 12:20:27;;;;;;;9.05;6.75;;;18.40;99.90;;;;;;5035265;28;20026;-80
2021/08/30 12:22:56;;;;;;;8.80;6.20;;;18.30;99.90;;;;;;5035085;28;20541;-80
2021/08/30 12:25:23;;;;;;;6.60;6.00;;;18.50;99.90;;;;;;5033236;28;20041;-80
2021/08/30 12:27:51;;;;;;;6.38;5.78;;;18.70;99.90;;;;;;5035885;28;20107;-79
2021/08/30 12:30:32;;;;;;;7.68;6.97;;;19.00;99.90;;;;;;5037270;28;20021;-80
2021/08/30 12:33:06;;;;;;;9.10;6.38;;;19.00;99.90;;;;;;5036720;28;20568;-80
2021/08/30 12:35:38;;;;;;;6.68;5.97;;;19.10;99.90;;;;;;5035793;28;20053;-80
2021/08/30 12:38:11;;;;;;;7.25;6.50;;;19.10;99.90;;;;;;5018753;28;20029;-79
2021/08/30 12:40:39;;;;;;;7.40;6.25;;;19.00;99.90;;;;;;5036065;28;20387;-79
2021/08/30 12:43:05;;;;;;;8.20;6.53;;;18.80;99.90;;;;;;5016644;28;20034;-79
2021/08/30 12:45:31;;;;;;;7.40;6.68;;;18.70;99.90;;;;;;5014618;28;20064;-80
2021/08/30 12:47:56;;;;;;;6.72;6.07;;;18.80;99.90;;;;;;5016228;28;20113;-79
2021/08/30 12:50:24;;;;;;;9.63;6.88;;;18.70;99.90;;;;;;5027984;28;20091;-79
2021/08/30 12:52:49;;;;;;;7.93;6.85;;;18.60;99.90;;;;;;5037141;28;20053;-79
2021/08/30 12:55:16;;;;;;;7.97;6.57;;;18.60;99.90;;;;;;5035500;28;20049;-79
2021/08/30 12:57:41;;;;;;;8.88;6.63;;;18.70;99.90;;;;;;5035913;28;20021;-79
2021/08/30 13:00:11;;;;;;;8.93;6.13;;;19.00;99.90;;;;;;5036040;28;20537;-80